Flight Track Log - Related Links

Times and Time Zones

All times are in EDT time to prevent confusion due to time zone crossing. See the GGN7283 flight status page for this flight to view local times or setup timezone preferences in your user account.

Time Position Orientation Groundspeed Altitude Reporting Facility
EDT Latitude Longitude Course Direction KTS MPH feet Rate Location/Type
Fri 05:26:19 PM 42.7653 -73.8061 307° West 146 168 1,000  Level Boston Center
Fri 05:27:45 PM 42.8000 -73.8692 307° West 186 214 2,300 857 Climbing Boston Center
Fri 05:28:46 PM 42.8136 -73.9486 283° West 214 246 3,100 893 Climbing Boston Center
Fri 05:29:46 PM 42.8292 -74.0283 285° West 216 249 4,100 898 Climbing Boston Center
Fri 05:30:53 PM 42.8425 -74.1136 282° West 219 252 5,000 714 Climbing Boston Center
Fri 05:31:52 PM 42.8558 -74.1961 282° West 219 252 5,600 950 Climbing Boston Center
Fri 05:32:53 PM 42.8669 -74.2728 281° West 219 252 6,900 1,091 Climbing Boston Center
Fri 05:33:53 PM 42.8783 -74.3497 281° West 219 252 7,800 1,000 Climbing Boston Center
Fri 05:34:53 PM 42.8894 -74.4294 281° West 219 252 8,900 1,109 Climbing Boston Center
Fri 05:35:52 PM 42.9050 -74.5008 287° West 214 246 10,000 1,261 Climbing Boston Center
Fri 05:36:52 PM 42.9158 -74.5778 281° West 209 241 11,400 1,190 Climbing Boston Center
Fri 05:37:53 PM 42.9272 -74.6492 282° West 204 235 12,400 1,131 Climbing Boston Center
Fri 05:38:54 PM 42.9403 -74.7233 284° West 204 235 13,700 1,091 Climbing Boston Center
Fri 05:39:54 PM 42.9514 -74.7833 284° West 199 229 14,600 744 Climbing Boston Center
Fri 05:40:55 PM 42.9625 -74.8603 281° West 199 229 15,200 712 Climbing Boston Center
Fri 05:41:52 PM 42.9714 -74.9231 281° West 199 229 16,000 1,017 Climbing Boston Center
Fri 05:42:53 PM 42.9822 -75.0086 280° West 199 229 17,200 934 Climbing Boston Center
Fri 05:43:54 PM 42.9825 -75.0769 270° West 199 229 17,900 756 Climbing Boston Center
Fri 05:44:52 PM 42.9831 -75.1478 271° West 199 229 18,700 785 Climbing Boston Center
Fri 05:46:04 PM 42.9831 -75.2331 270° West 199 229 19,600 586 Climbing Boston Center
Fri 05:47:05 PM 42.9814 -75.3039 268° West 199 229 20,000 246 Climbing Boston Center
Fri 05:48:06 PM 42.9794 -75.3806 268° West 199 229 20,100 49 Climbing Boston Center
Fri 05:49:07 PM 42.9814 -75.4572 272° West 199 229 20,100  Level Boston Center
Fri 05:50:04 PM 42.9817 -75.5308 270° West 199 229 20,100  Level Boston Center
Fri 05:51:05 PM 42.9817 -75.6075 270° West 199 229 20,100  Level Boston Center
Fri 05:52:05 PM 42.9817 -75.6814 270° West 199 229 20,100  Level Boston Center
Fri 05:53:06 PM 42.9814 -75.7581 270° West 199 229 20,100 -149 Level Boston Center
Fri 05:54:06 PM 42.9814 -75.8319 270° West 199 229 19,800 -595 Descending Boston Center
Fri 05:55:07 PM 42.9789 -75.9142 268° West 204 235 18,900 -915 Descending Boston Center
Fri 05:56:04 PM 42.9783 -75.9964 269° West 214 246 18,000 -1,012 Descending Boston Center
Fri 05:57:53 PM 42.9781 -76.1614 270° West 227 261 16,100 -710 Descending Cleveland Center
Fri 05:58:53 PM 42.9772 -76.2494 269° West 233 268 16,000 -50 Descending Cleveland Center
Fri 05:59:53 PM 42.9742 -76.3347 267° West 233 268 16,000 50 Level Cleveland Center
Fri 06:00:53 PM 42.9750 -76.4172 271° West 233 268 16,100 100 Climbing Cleveland Center
Fri 06:01:53 PM 42.9717 -76.4997 267° West 228 262 16,200  Climbing Cleveland Center
Fri 06:02:53 PM 42.9725 -76.5819 271° West 228 262 16,100 -50 Descending Cleveland Center
Fri 06:03:53 PM 42.9711 -76.6644 269° West 222 255 16,100  Level Cleveland Center
Fri 06:04:53 PM 42.9697 -76.7467 269° West 217 250 16,100  Level Cleveland Center
Fri 06:05:53 PM 42.9683 -76.8292 269° West 217 250 16,100  Level Cleveland Center
Fri 06:06:53 PM 42.9686 -76.9086 270° West 217 250 16,100 -50 Level Cleveland Center
Fri 06:07:53 PM 42.9650 -76.9911 267° West 217 250 16,000 -50 Descending Cleveland Center
Fri 06:08:53 PM 42.9656 -77.0733 271° West 217 250 16,000 50 Level Cleveland Center
Fri 06:09:53 PM 42.9636 -77.1531 268° West 217 250 16,100 50 Climbing Cleveland Center
Fri 06:10:53 PM 42.9619 -77.2381 268° West 217 250 16,100  Level Cleveland Center
Fri 06:11:53 PM 42.9603 -77.3178 268° West 217 250 16,100  Level Cleveland Center
Fri 06:12:53 PM 42.9583 -77.4000 268° West 217 250 16,100  Level Cleveland Center
Fri 06:13:53 PM 42.9583 -77.4825 270° West 217 250 16,100  Level Cleveland Center
Fri 06:14:53 PM 42.9544 -77.5619 266° West 217 250 16,100 -200 Level Cleveland Center
Fri 06:15:53 PM 42.9544 -77.6442 270° West 217 250 15,700 -550 Descending Cleveland Center
Fri 06:16:53 PM 42.9544 -77.7322 270° West 222 255 15,000 -600 Descending Cleveland Center
Fri 06:17:53 PM 42.9503 -77.8233 266° West 233 268 14,500 -645 Descending Cleveland Center
Fri 06:18:54 PM 42.9714 -77.9131 288° West 238 274 13,700 -650 Descending Cleveland Center
Fri 06:19:53 PM 42.9942 -77.9972 290° West 243 280 13,200 -605 Descending Cleveland Center
Fri 06:20:53 PM 43.0147 -78.0789 289° West 238 274 12,500 -550 Descending Cleveland Center
Fri 06:21:53 PM 43.0331 -78.1606 287° West 233 268 12,100 -200 Descending Cleveland Center
Fri 06:22:53 PM 43.0492 -78.2394 286° West 228 262 12,100  Level Cleveland Center
Fri 06:23:53 PM 43.0672 -78.3125 289° West 217 250 12,100  Level Cleveland Center
Fri 06:24:53 PM 43.0856 -78.3886 288° West 212 244 12,100  Level Cleveland Center
Fri 06:25:53 PM 43.1036 -78.4619 289° West 207 238 12,100  Level Cleveland Center
Fri 06:26:53 PM 43.1194 -78.5353 287° West 200 230 12,100  Level Cleveland Center
Fri 06:27:53 PM 43.1353 -78.6089 286° West 200 230 12,100  Level Cleveland Center
Fri 06:28:53 PM 43.1511 -78.6767 288° West 200 230 12,100  Level Cleveland Center
Fri 06:29:53 PM 43.1689 -78.7531 288° West 200 230 12,100  Level Cleveland Center
Fri 06:30:53 PM 43.1806 -78.8267 282° West 200 230 12,100  Level Cleveland Center
Fri 06:31:53 PM 43.2025 -78.9000 292° West 200 230 12,100  Level Cleveland Center
Fri 06:32:53 PM 43.2200 -78.9736 288° West 205 236 12,100 -200 Level Cleveland Center
Fri 06:33:53 PM 43.2378 -79.0472 288° West 205 236 11,700 -650 Descending Cleveland Center
Fri 06:34:53 PM 43.2556 -79.1294 287° West 211 243 10,800 -950 Descending Cleveland Center
Fri 06:35:53 PM 43.2775 -79.2317 286° West 237 273 9,800 -750 Descending Cleveland Center
Fri 06:37:09 PM 43.2833 -79.3167 275° West 240 276 9,100 -309 Descending Toronto Center
Fri 06:38:09 PM 43.3333 -79.3500 334° Northwest 230 265 9,100  Level Toronto Center
Fri 06:39:09 PM 43.4000 -79.4000 331° Northwest 240 276 9,100  Level Toronto Center
Fri 06:40:09 PM 43.4500 -79.4667 316° Northwest 230 265 9,100 -50 Level Toronto Center
Fri 06:41:09 PM 43.5000 -79.5000 334° Northwest 240 276 9,000 -450 Descending Toronto Center
Fri 06:42:09 PM 43.5667 -79.5167 350° North 250 288 8,200 -1,000 Descending Toronto Center
Fri 06:43:09 PM 43.6333 -79.4667 28° Northeast 250 288 7,000 -1,350 Descending Toronto Center
Fri 06:44:09 PM 43.6667 -79.4000 55° Northeast 250 288 5,500 -1,100 Descending Toronto Center
Fri 06:45:09 PM 43.7167 -79.3333 44° Northeast 230 265 4,800 -800 Descending Toronto Center
Fri 06:46:09 PM 43.7667 -79.3167 14° North 200 230 3,900 -700 Descending Toronto Center
Fri 06:47:09 PM 43.8000 -79.3333 340° North 180 207 3,400 -500 Descending Toronto Center
Fri 06:48:09 PM 43.7833 -79.4000 251° West 180 207 2,900 -250 Descending Toronto Center
Fri 06:49:09 PM 43.7500 -79.4500 227° Southwest 170 196 2,900 -400 Level Toronto Center
Fri 06:50:09 PM 43.7167 -79.5000 227° Southwest 170 196 2,100 -700 Descending Toronto Center
Fri 06:51:09 PM 43.7000 -79.5333 235° Southwest 140 161 1,500 -600 Descending Toronto Center
Fri 06:52:09 PM 43.6667 -79.5667 216° Southwest 120 138 900 -450 Descending Toronto Center
Fri 06:53:09 PM 43.6500 -79.5833 216° Southwest 80 92 600 -300 Descending Toronto Center

Login

Don't have an account? Register now (free) for customized features, flight alerts, and more!